createdAt,value
2023-04-15T00:00:24.730Z,16.08
2023-04-15T00:01:24.757Z,15.97
2023-04-15T00:02:24.829Z,15.79
2023-04-15T00:03:24.907Z,15.48
2023-04-15T00:04:24.780Z,15.59
2023-04-15T00:05:24.674Z,15.29
2023-04-15T00:06:24.695Z,15.23
2023-04-15T00:07:24.707Z,15.10
2023-04-15T00:08:24.688Z,15.37
2023-04-15T00:09:24.692Z,15.08
2023-04-15T00:10:24.649Z,14.85
2023-04-15T00:11:24.631Z,14.81
2023-04-15T00:12:24.721Z,14.76
2023-04-15T00:13:24.713Z,14.78
2023-04-15T00:14:24.708Z,14.88
2023-04-15T00:15:24.733Z,14.53
2023-04-15T00:16:24.821Z,14.79
2023-04-15T00:17:24.823Z,14.24
2023-04-15T00:18:24.848Z,14.54
2023-04-15T00:19:24.905Z,14.11
2023-04-15T00:20:24.891Z,14.17
2023-04-15T00:21:24.959Z,14.10
2023-04-15T00:22:24.994Z,14.06
2023-04-15T00:23:25.035Z,13.70
2023-04-15T00:24:25.058Z,13.85
2023-04-15T00:25:25.041Z,13.92
2023-04-15T00:26:25.114Z,13.49
2023-04-15T00:27:25.125Z,13.56
2023-04-15T00:28:25.161Z,13.48
2023-04-15T00:29:25.186Z,13.44
2023-04-15T00:30:25.203Z,13.44
2023-04-15T00:31:25.304Z,12.99
2023-04-15T00:32:25.280Z,13.06
2023-04-15T00:33:25.313Z,13.23
2023-04-15T00:34:25.336Z,12.80
2023-04-15T00:35:25.396Z,12.84
2023-04-15T00:36:25.395Z,12.73
2023-04-15T00:37:25.430Z,12.36
2023-04-15T00:38:25.446Z,12.49
2023-04-15T00:39:25.461Z,12.50
2023-04-15T00:40:25.510Z,12.04
2023-04-15T00:41:25.530Z,12.11
2023-04-15T00:42:25.570Z,12.27
2023-04-15T00:43:25.584Z,11.79
2023-04-15T00:44:25.605Z,12.00
2023-04-15T00:45:25.650Z,11.79
2023-04-15T00:46:25.697Z,11.81
2023-04-15T00:47:25.763Z,11.70
2023-04-15T00:48:25.741Z,11.54
2023-04-15T00:49:25.776Z,11.45
2023-04-15T00:50:25.799Z,11.42
2023-04-15T00:51:25.856Z,11.08
2023-04-15T00:52:25.838Z,11.05
2023-04-15T00:53:25.927Z,11.03
2023-04-15T00:54:25.927Z,11.19
2023-04-15T00:55:26.590Z,10.96
2023-04-15T00:56:26.009Z,10.59
2023-04-15T00:57:26.012Z,10.57
2023-04-15T00:58:26.037Z,10.70
2023-04-15T00:59:26.078Z,10.62
2023-04-15T01:00:26.123Z,10.42
2023-04-15T01:01:26.219Z,10.40
2023-04-15T01:02:26.376Z,10.10
2023-04-15T01:03:26.332Z,9.95
2023-04-15T01:04:26.317Z,9.95
2023-04-15T01:05:26.229Z,10.01
2023-04-15T01:06:26.319Z,9.74
2023-04-15T01:07:26.341Z,9.76
2023-04-15T01:08:26.350Z,9.74
2023-04-15T01:09:26.350Z,9.55
2023-04-15T01:10:26.440Z,9.52
2023-04-15T01:11:26.445Z,9.65
2023-04-15T01:12:26.507Z,9.44
2023-04-15T01:13:26.527Z,9.36
2023-04-15T01:14:26.574Z,9.53
2023-04-15T01:15:26.587Z,9.28
2023-04-15T01:16:26.674Z,9.39
2023-04-15T01:17:26.693Z,9.36
2023-04-15T01:18:26.690Z,9.14
2023-04-15T01:19:26.700Z,9.16
2023-04-15T01:20:26.730Z,9.10
2023-04-15T01:21:26.753Z,8.94
2023-04-15T01:22:26.895Z,8.97
2023-04-15T01:23:26.789Z,8.96
2023-04-15T01:24:26.844Z,8.91
2023-04-15T01:25:26.898Z,8.86
2023-04-15T01:26:26.954Z,8.75
2023-04-15T01:27:26.925Z,8.64
2023-04-15T01:28:26.999Z,8.55
2023-04-15T01:29:27.021Z,8.50
2023-04-15T01:30:27.088Z,8.47
2023-04-15T01:31:27.124Z,8.41
2023-04-15T01:32:27.186Z,8.40
2023-04-15T01:33:27.157Z,8.32
2023-04-15T01:34:27.228Z,8.52
2023-04-15T01:35:27.296Z,8.46
2023-04-15T01:36:27.278Z,8.24
2023-04-15T01:37:27.282Z,8.33
2023-04-15T01:38:27.342Z,8.27
2023-04-15T01:39:27.360Z,8.23
2023-04-15T01:40:27.368Z,8.28
2023-04-15T01:41:27.405Z,8.05
2023-04-15T01:42:27.429Z,8.21
2023-04-15T01:43:27.498Z,7.90
2023-04-15T01:44:27.496Z,8.10
2023-04-15T01:45:27.557Z,7.89
2023-04-15T01:46:27.598Z,7.85
2023-04-15T01:47:27.586Z,7.91
2023-04-15T01:48:27.635Z,7.93
2023-04-15T01:49:27.656Z,7.83
2023-04-15T01:50:27.673Z,7.77
2023-04-15T01:51:27.727Z,7.76
2023-04-15T01:52:27.760Z,7.81
2023-04-15T01:53:27.770Z,7.55
2023-04-15T01:54:27.798Z,7.47
2023-04-15T01:55:27.809Z,7.52
2023-04-15T01:56:27.829Z,7.47
2023-04-15T01:57:27.840Z,7.36
2023-04-15T01:58:27.916Z,7.47
2023-04-15T01:59:27.947Z,7.36
2023-04-15T02:00:27.981Z,7.45
2023-04-15T02:01:28.122Z,7.34
2023-04-15T02:02:28.130Z,7.31
2023-04-15T02:03:28.230Z,7.31
2023-04-15T02:04:28.103Z,7.28
2023-04-15T02:05:28.112Z,7.28
2023-04-15T02:06:28.158Z,7.22
2023-04-15T02:07:28.148Z,7.03
2023-04-15T02:08:28.218Z,7.10
2023-04-15T02:09:28.225Z,7.11
2023-04-15T02:10:28.257Z,7.10
2023-04-15T02:11:28.318Z,7.08
2023-04-15T02:12:28.377Z,7.05
2023-04-15T02:13:28.340Z,7.00
2023-04-15T02:14:28.397Z,6.90
2023-04-15T02:15:28.404Z,7.00
2023-04-15T02:16:28.466Z,7.03
2023-04-15T02:17:28.526Z,6.81
2023-04-15T02:18:28.486Z,6.79
2023-04-15T02:19:28.512Z,6.85
2023-04-15T02:20:28.560Z,6.70
2023-04-15T02:21:28.532Z,6.82
2023-04-15T02:22:28.565Z,6.80
2023-04-15T02:23:28.723Z,6.64
2023-04-15T02:24:28.656Z,6.64
2023-04-15T02:25:28.706Z,6.56
2023-04-15T02:26:28.748Z,6.63
2023-04-15T02:27:28.750Z,6.69
2023-04-15T02:28:28.766Z,6.48
2023-04-15T02:29:28.817Z,6.49
2023-04-15T02:30:29.069Z,6.36
2023-04-15T02:31:28.977Z,6.41
2023-04-15T02:32:28.928Z,6.43
2023-04-15T02:33:28.919Z,6.30
2023-04-15T02:34:28.938Z,6.53
2023-04-15T02:35:28.940Z,6.26
2023-04-15T02:36:29.020Z,6.14
2023-04-15T02:37:29.016Z,6.36
2023-04-15T02:38:29.086Z,6.19
2023-04-15T02:39:29.088Z,6.15
2023-04-15T02:40:29.150Z,6.19
2023-04-15T02:41:29.166Z,6.07
2023-04-15T02:42:29.197Z,6.06
2023-04-15T02:43:29.223Z,6.09
2023-04-15T02:44:29.226Z,6.10
2023-04-15T02:45:29.290Z,6.12
2023-04-15T02:46:29.411Z,6.08
2023-04-15T02:47:29.357Z,6.14
2023-04-15T02:48:29.354Z,6.00
2023-04-15T02:49:29.368Z,6.03
2023-04-15T02:50:29.980Z,5.91
2023-04-15T02:51:29.429Z,5.87
2023-04-15T02:52:29.463Z,5.87
2023-04-15T02:53:29.494Z,5.86
2023-04-15T02:54:29.509Z,5.81
2023-04-15T02:55:29.561Z,5.99
2023-04-15T02:56:29.576Z,5.85
2023-04-15T02:57:29.591Z,5.90
2023-04-15T02:58:29.616Z,5.81
2023-04-15T02:59:29.637Z,5.80
2023-04-15T03:00:29.649Z,5.88
2023-04-15T03:01:29.730Z,5.81
2023-04-15T03:02:29.804Z,5.79
2023-04-15T03:03:29.831Z,5.78
2023-04-15T03:04:29.790Z,5.67
2023-04-15T03:05:29.791Z,5.53
2023-04-15T03:06:29.823Z,5.63
2023-04-15T03:07:29.840Z,5.68
2023-04-15T03:08:29.919Z,5.77
2023-04-15T03:09:29.917Z,5.62
2023-04-15T03:10:29.937Z,5.68
2023-04-15T03:11:29.993Z,5.69
2023-04-15T03:12:30.004Z,5.72
2023-04-15T03:13:30.035Z,5.59
2023-04-15T03:14:30.059Z,5.58
2023-04-15T03:15:30.125Z,5.57
2023-04-15T03:16:30.118Z,5.59
2023-04-15T03:17:30.190Z,5.54
2023-04-15T03:18:30.158Z,5.64
2023-04-15T03:19:30.219Z,5.54
2023-04-15T03:20:30.279Z,5.60
2023-04-15T03:21:30.267Z,5.51
2023-04-15T03:22:30.262Z,5.68
2023-04-15T03:23:30.314Z,5.62
2023-04-15T03:24:30.339Z,5.59
2023-04-15T03:25:30.360Z,5.62
2023-04-15T03:26:30.459Z,5.55
2023-04-15T03:27:30.406Z,5.57
2023-04-15T03:28:30.456Z,5.54
2023-04-15T03:29:30.466Z,5.42
2023-04-15T03:30:30.504Z,5.40
2023-04-15T03:31:30.531Z,5.42
2023-04-15T03:32:30.574Z,5.36
2023-04-15T03:33:30.590Z,5.53
2023-04-15T03:34:30.596Z,5.45
2023-04-15T03:35:30.662Z,5.47
2023-04-15T03:36:30.660Z,5.31
2023-04-15T03:37:30.698Z,5.31
2023-04-15T03:38:30.714Z,5.37
2023-04-15T03:39:30.726Z,5.32
2023-04-15T03:40:30.772Z,5.33
2023-04-15T03:41:30.790Z,5.40
2023-04-15T03:42:30.828Z,5.41
2023-04-15T03:43:30.829Z,5.30
2023-04-15T03:44:30.860Z,5.22
2023-04-15T03:45:30.851Z,5.26
2023-04-15T03:46:30.971Z,5.37
2023-04-15T03:47:30.976Z,5.25
2023-04-15T03:48:30.972Z,5.13
2023-04-15T03:49:30.981Z,5.22
2023-04-15T03:50:31.038Z,5.24
2023-04-15T03:51:31.056Z,5.27
2023-04-15T03:52:31.062Z,5.26
2023-04-15T03:53:31.051Z,5.18
2023-04-15T03:54:31.080Z,5.16
2023-04-15T03:55:31.126Z,5.15
2023-04-15T03:56:31.152Z,5.23
2023-04-15T03:57:31.171Z,5.17
2023-04-15T03:58:31.177Z,5.09
2023-04-15T03:59:31.208Z,5.17
2023-04-15T04:00:31.277Z,5.11
2023-04-15T04:01:31.318Z,5.06
2023-04-15T04:02:31.381Z,5.08
2023-04-15T04:03:31.423Z,5.04
2023-04-15T04:04:31.441Z,5.03
2023-04-15T04:05:31.410Z,5.03
2023-04-15T04:06:31.397Z,4.98
2023-04-15T04:07:31.425Z,5.01
2023-04-15T04:08:31.476Z,5.06
2023-04-15T04:09:31.496Z,4.99
2023-04-15T04:10:31.507Z,4.95
2023-04-15T04:11:31.527Z,5.02
2023-04-15T04:12:31.556Z,4.97
2023-04-15T04:13:31.579Z,4.95
2023-04-15T04:14:31.600Z,5.01
2023-04-15T04:15:31.677Z,4.93
2023-04-15T04:16:31.650Z,4.96
2023-04-15T04:17:31.762Z,4.91
2023-04-15T04:18:31.758Z,4.89
2023-04-15T04:19:31.741Z,5.00
2023-04-15T04:20:31.782Z,4.84
2023-04-15T04:21:31.819Z,4.85
2023-04-15T04:22:31.834Z,4.92
2023-04-15T04:23:31.873Z,4.78
2023-04-15T04:24:31.870Z,4.78
2023-04-15T04:25:31.898Z,4.91
2023-04-15T04:26:31.956Z,4.79
2023-04-15T04:27:31.983Z,4.86
2023-04-15T04:28:31.967Z,4.77
2023-04-15T04:29:32.014Z,4.79
2023-04-15T04:30:32.074Z,4.74
2023-04-15T04:31:32.114Z,4.75
2023-04-15T04:32:32.208Z,4.73
2023-04-15T04:33:32.127Z,4.61
2023-04-15T04:34:32.170Z,4.60
2023-04-15T04:35:32.150Z,4.55
2023-04-15T04:36:32.249Z,4.51
2023-04-15T04:37:32.262Z,4.47
2023-04-15T04:38:32.244Z,4.43
2023-04-15T04:39:32.274Z,4.47
2023-04-15T04:40:32.284Z,4.42
2023-04-15T04:41:32.376Z,4.42
2023-04-15T04:42:32.397Z,4.43
2023-04-15T04:43:32.432Z,4.34
2023-04-15T04:44:32.369Z,4.33
2023-04-15T04:45:32.436Z,4.29
2023-04-15T04:46:32.471Z,4.22
2023-04-15T04:47:32.527Z,4.25
2023-04-15T04:48:32.512Z,4.13
2023-04-15T04:49:32.548Z,4.13
2023-04-15T04:50:32.545Z,4.06
2023-04-15T04:51:32.620Z,4.05
2023-04-15T04:52:32.606Z,4.01
2023-04-15T04:53:32.639Z,4.07
2023-04-15T04:54:32.656Z,3.95
2023-04-15T04:55:32.717Z,3.94
2023-04-15T04:56:32.701Z,3.92
2023-04-15T04:57:32.752Z,3.91
2023-04-15T04:58:32.819Z,3.88
2023-04-15T04:59:32.817Z,3.79
2023-04-15T05:00:32.829Z,3.83
2023-04-15T05:01:32.928Z,3.83
2023-04-15T05:02:33.158Z,3.75
2023-04-15T05:03:32.972Z,3.79
2023-04-15T05:04:32.924Z,3.80
2023-04-15T05:05:32.954Z,3.79
2023-04-15T05:06:32.989Z,3.73
2023-04-15T05:07:32.967Z,3.77
2023-04-15T05:08:33.010Z,3.57
2023-04-15T05:09:33.048Z,3.74
2023-04-15T05:10:33.094Z,3.72
2023-04-15T05:11:33.118Z,3.70
2023-04-15T05:12:33.122Z,3.70
2023-04-15T05:13:33.116Z,3.71
2023-04-15T05:14:33.153Z,3.67
2023-04-15T05:15:33.529Z,3.63
2023-04-15T05:16:33.264Z,3.68
2023-04-15T05:17:33.329Z,3.65
2023-04-15T05:18:33.296Z,3.63
2023-04-15T05:19:33.299Z,3.61
2023-04-15T05:20:33.325Z,3.58
2023-04-15T05:21:33.349Z,3.59
2023-04-15T05:22:33.343Z,3.54
2023-04-15T05:23:33.399Z,3.49
2023-04-15T05:24:33.396Z,3.61
2023-04-15T05:25:33.442Z,3.51
2023-04-15T05:26:33.478Z,3.50
2023-04-15T05:27:33.505Z,3.56
2023-04-15T05:28:33.529Z,3.49
2023-04-15T05:29:33.572Z,3.46
2023-04-15T05:30:33.608Z,3.42
2023-04-15T05:31:33.666Z,3.45
2023-04-15T05:32:33.631Z,3.48
2023-04-15T05:33:33.641Z,3.38
2023-04-15T05:34:33.700Z,3.38
2023-04-15T05:35:33.697Z,3.42
2023-04-15T05:36:33.718Z,3.39
2023-04-15T05:37:33.769Z,3.33
2023-04-15T05:38:33.799Z,3.39
2023-04-15T05:39:33.808Z,3.40
2023-04-15T05:40:33.829Z,3.32
2023-04-15T05:41:33.864Z,3.32
2023-04-15T05:42:33.886Z,3.30
2023-04-15T05:43:33.950Z,3.30
2023-04-15T05:44:33.944Z,3.33
2023-04-15T05:45:33.964Z,3.31
2023-04-15T05:46:34.072Z,3.33
2023-04-15T05:47:34.060Z,3.31
2023-04-15T05:48:34.064Z,3.24
2023-04-15T05:49:34.108Z,3.32
2023-04-15T05:50:34.161Z,3.27
2023-04-15T05:51:34.139Z,3.23
2023-04-15T05:52:34.148Z,3.25
2023-04-15T05:53:34.173Z,3.29
2023-04-15T05:54:34.203Z,3.25
2023-04-15T05:55:34.200Z,3.29
2023-04-15T05:56:34.290Z,3.22
2023-04-15T05:57:34.273Z,3.23
2023-04-15T05:58:34.380Z,3.24
2023-04-15T05:59:34.364Z,3.17
2023-04-15T06:00:34.393Z,3.17
2023-04-15T06:01:34.406Z,3.11
2023-04-15T06:02:34.480Z,3.17
2023-04-15T06:03:34.580Z,3.11
2023-04-15T06:04:34.698Z,3.09
2023-04-15T06:05:34.523Z,2.99
2023-04-15T06:06:34.552Z,3.02
2023-04-15T06:07:34.622Z,3.02
2023-04-15T06:08:34.600Z,2.98
2023-04-15T06:09:34.620Z,3.05
2023-04-15T06:10:34.616Z,2.95
2023-04-15T06:11:34.657Z,2.91
2023-04-15T06:12:34.667Z,2.90
2023-04-15T06:13:34.693Z,2.89
2023-04-15T06:14:34.732Z,2.88
2023-04-15T06:15:34.775Z,2.86
2023-04-15T06:16:34.811Z,2.90
2023-04-15T06:17:34.846Z,2.78
2023-04-15T06:18:34.864Z,2.80
2023-04-15T06:19:34.831Z,2.76
2023-04-15T06:20:34.884Z,2.73
2023-04-15T06:21:34.898Z,2.79
2023-04-15T06:22:34.946Z,2.71
2023-04-15T06:23:34.989Z,2.63
2023-04-15T06:24:34.989Z,2.69
2023-04-15T06:25:35.028Z,2.61
2023-04-15T06:26:35.057Z,2.65
2023-04-15T06:27:35.047Z,2.56
2023-04-15T06:28:35.102Z,2.58
2023-04-15T06:29:35.137Z,2.57
2023-04-15T06:30:35.123Z,2.53
2023-04-15T06:31:35.248Z,2.52
2023-04-15T06:32:35.234Z,2.49
2023-04-15T06:33:35.191Z,2.46
2023-04-15T06:34:35.218Z,2.43
2023-04-15T06:35:35.256Z,2.43
2023-04-15T06:36:35.265Z,2.40
2023-04-15T06:37:35.306Z,2.34
2023-04-15T06:38:35.406Z,2.37
2023-04-15T06:39:35.358Z,2.33
2023-04-15T06:40:35.400Z,2.33
2023-04-15T06:41:35.427Z,2.32
2023-04-15T06:42:35.400Z,2.28
2023-04-15T06:43:35.481Z,2.27
2023-04-15T06:44:35.479Z,2.29
2023-04-15T06:45:35.519Z,2.24
2023-04-15T06:46:35.519Z,2.20
2023-04-15T06:47:35.573Z,2.20
2023-04-15T06:48:35.574Z,2.13
2023-04-15T06:49:35.587Z,2.16
2023-04-15T06:50:35.659Z,2.12
2023-04-15T06:51:35.629Z,2.07
2023-04-15T06:52:35.650Z,2.04
2023-04-15T06:53:35.665Z,2.02
2023-04-15T06:54:35.654Z,2.03
2023-04-15T06:55:35.724Z,2.01
2023-04-15T06:56:35.767Z,1.96
2023-04-15T06:57:35.769Z,1.99
2023-04-15T06:58:35.780Z,1.99
2023-04-15T06:59:35.789Z,1.95
2023-04-15T07:00:35.794Z,1.97
2023-04-15T07:01:35.930Z,1.95
2023-04-15T07:02:35.961Z,1.91
2023-04-15T07:03:35.841Z,1.89
2023-04-15T07:04:36.071Z,1.85
2023-04-15T07:05:35.933Z,1.85
2023-04-15T07:06:35.979Z,1.82
2023-04-15T07:07:36.005Z,1.80
2023-04-15T07:08:36.034Z,1.81
2023-04-15T07:09:35.996Z,1.82
2023-04-15T07:10:36.072Z,1.79
2023-04-15T07:11:36.087Z,1.77
2023-04-15T07:12:36.089Z,1.80
2023-04-15T07:13:36.107Z,1.74
2023-04-15T07:14:36.138Z,1.74
2023-04-15T07:15:36.153Z,1.72
2023-04-15T07:16:36.250Z,1.70
2023-04-15T07:17:36.235Z,1.68
2023-04-15T07:18:36.233Z,1.64
2023-04-15T07:19:36.260Z,1.64
2023-04-15T07:20:36.290Z,1.62
2023-04-15T07:21:36.331Z,1.58
2023-04-15T07:22:36.328Z,1.56
2023-04-15T07:23:36.378Z,1.57
2023-04-15T07:24:36.411Z,1.56
2023-04-15T07:25:36.422Z,1.54
2023-04-15T07:26:36.454Z,1.53
2023-04-15T07:27:36.444Z,1.52
2023-04-15T07:28:36.452Z,1.52
2023-04-15T07:29:36.513Z,1.52
2023-04-15T07:30:36.553Z,1.54
2023-04-15T07:31:36.622Z,1.51
2023-04-15T07:32:36.602Z,1.50
2023-04-15T07:33:36.567Z,1.49
2023-04-15T07:34:36.601Z,1.51
2023-04-15T07:35:36.652Z,1.52
2023-04-15T07:36:36.669Z,1.46
2023-04-15T07:37:36.689Z,1.44
2023-04-15T07:38:36.725Z,1.41
2023-04-15T07:39:36.725Z,1.44
2023-04-15T07:40:36.767Z,1.39
2023-04-15T07:41:36.802Z,1.40
2023-04-15T07:42:37.131Z,1.39
2023-04-15T07:43:36.810Z,1.40
2023-04-15T07:44:36.860Z,1.36
2023-04-15T07:45:36.877Z,1.39
2023-04-15T07:46:36.976Z,1.39
2023-04-15T07:47:36.946Z,1.38
2023-04-15T07:48:37.668Z,1.36
2023-04-15T07:49:36.965Z,1.39
2023-04-15T07:50:36.961Z,1.37
2023-04-15T07:51:37.010Z,1.35
2023-04-15T07:52:37.041Z,1.34
2023-04-15T07:53:37.041Z,1.34
2023-04-15T07:54:37.094Z,1.32
2023-04-15T07:55:37.085Z,1.28
2023-04-15T07:56:37.107Z,1.34
2023-04-15T07:57:37.137Z,1.30
2023-04-15T07:58:37.145Z,1.34
2023-04-15T07:59:37.182Z,1.30
2023-04-15T08:00:37.199Z,1.29
2023-04-15T08:01:37.252Z,1.31
2023-04-15T08:02:39.060Z,1.32
2023-04-15T08:03:37.383Z,1.34
2023-04-15T08:04:37.379Z,1.32
2023-04-15T08:05:37.226Z,1.31
2023-04-15T08:06:37.217Z,1.31
2023-04-15T08:07:37.231Z,1.27
2023-04-15T08:08:37.178Z,1.26
2023-04-15T08:09:37.214Z,1.24
2023-04-15T08:10:37.217Z,1.25
2023-04-15T08:11:37.215Z,1.26
2023-04-15T08:12:37.256Z,1.27
2023-04-15T08:13:37.192Z,1.25
2023-04-15T08:14:37.174Z,1.23
2023-04-15T08:15:37.173Z,1.24
2023-04-15T08:16:37.334Z,1.23
2023-04-15T08:17:37.200Z,1.24
2023-04-15T08:18:37.116Z,1.24
2023-04-15T08:19:37.130Z,1.25
2023-04-15T08:20:37.119Z,1.23
2023-04-15T08:21:37.146Z,1.23
2023-04-15T08:22:37.096Z,1.26
2023-04-15T08:23:37.110Z,1.22
2023-04-15T08:24:37.108Z,1.22
2023-04-15T08:25:37.094Z,1.24
2023-04-15T08:26:37.082Z,1.24
2023-04-15T08:27:37.060Z,1.23
2023-04-15T08:28:37.085Z,1.24
2023-04-15T08:29:37.012Z,1.24
2023-04-15T08:30:37.018Z,1.26
2023-04-15T08:31:37.087Z,1.23
2023-04-15T08:32:37.076Z,1.25
2023-04-15T08:33:37.002Z,1.24
2023-04-15T08:34:37.012Z,1.21
2023-04-15T08:35:37.043Z,1.25
2023-04-15T08:36:37.032Z,1.23
2023-04-15T08:37:36.994Z,1.23
2023-04-15T08:38:37.029Z,1.20
2023-04-15T08:39:37.058Z,1.22
2023-04-15T08:40:37.060Z,1.22
2023-04-15T08:41:37.073Z,1.20
2023-04-15T08:42:37.103Z,1.21
2023-04-15T08:43:37.115Z,1.21
2023-04-15T08:44:37.141Z,1.21
2023-04-15T08:45:37.129Z,1.22
2023-04-15T08:46:37.208Z,1.19
2023-04-15T08:47:37.222Z,1.24
2023-04-15T08:48:37.216Z,1.22
2023-04-15T08:49:37.242Z,1.21
2023-04-15T08:50:37.273Z,1.19
2023-04-15T08:51:37.298Z,1.21
2023-04-15T08:52:37.298Z,1.21
2023-04-15T08:53:37.321Z,1.23
2023-04-15T08:54:37.337Z,1.23
2023-04-15T08:55:37.473Z,1.23
2023-04-15T08:56:37.515Z,1.21
2023-04-15T08:57:37.453Z,1.23
2023-04-15T08:58:37.453Z,1.22
2023-04-15T08:59:37.433Z,1.22
2023-04-15T09:00:37.503Z,1.20
2023-04-15T09:01:37.552Z,1.21
2023-04-15T09:02:37.698Z,1.20
2023-04-15T09:03:37.637Z,1.21
2023-04-15T09:04:37.542Z,1.21
2023-04-15T09:05:37.554Z,1.23
2023-04-15T09:06:37.631Z,1.21
2023-04-15T09:07:37.642Z,1.17
2023-04-15T09:08:37.681Z,1.18
2023-04-15T09:09:37.659Z,1.17
2023-04-15T09:10:37.710Z,1.16
2023-04-15T09:11:37.729Z,1.17
2023-04-15T09:12:37.776Z,1.18
2023-04-15T09:13:37.771Z,1.16
2023-04-15T09:14:37.828Z,1.13
2023-04-15T09:15:37.793Z,1.15
2023-04-15T09:16:37.893Z,1.16
2023-04-15T09:17:37.854Z,1.15
2023-04-15T09:18:37.885Z,1.14
2023-04-15T09:19:37.899Z,1.15
2023-04-15T09:20:37.946Z,1.16
2023-04-15T09:21:37.969Z,1.16
2023-04-15T09:22:38.028Z,1.15
2023-04-15T09:23:38.022Z,1.16
2023-04-15T09:24:38.025Z,1.15
2023-04-15T09:25:38.119Z,1.15
2023-04-15T09:26:38.136Z,1.17
2023-04-15T09:27:38.083Z,1.13
2023-04-15T09:28:38.118Z,1.14
2023-04-15T09:29:38.230Z,1.14
2023-04-15T09:30:38.287Z,1.12
2023-04-15T09:31:38.216Z,1.13
2023-04-15T09:32:38.290Z,1.11
2023-04-15T09:33:38.222Z,1.09
2023-04-15T09:34:38.299Z,1.11
2023-04-15T09:35:38.325Z,1.11
2023-04-15T09:36:38.344Z,1.11
2023-04-15T09:37:38.362Z,1.08
2023-04-15T09:38:38.344Z,1.11
2023-04-15T09:39:38.393Z,1.08
2023-04-15T09:40:38.396Z,1.10
2023-04-15T09:41:38.412Z,1.06
2023-04-15T09:42:38.461Z,1.04
2023-04-15T09:43:38.500Z,1.08
2023-04-15T09:44:38.511Z,1.07
2023-04-15T09:45:38.516Z,1.06
2023-04-15T09:46:38.560Z,1.08
2023-04-15T09:47:38.627Z,1.05
2023-04-15T09:48:38.587Z,1.06
2023-04-15T09:49:38.677Z,1.06
2023-04-15T09:50:38.650Z,1.08
2023-04-15T09:51:38.638Z,1.07
2023-04-15T09:52:38.764Z,1.10
2023-04-15T09:53:38.695Z,1.08
2023-04-15T09:54:38.787Z,1.09
2023-04-15T09:55:38.797Z,1.08
2023-04-15T09:56:38.793Z,1.06
2023-04-15T09:57:38.785Z,1.06
2023-04-15T09:58:38.875Z,1.04
2023-04-15T09:59:38.898Z,1.05
2023-04-15T10:00:38.907Z,1.00
2023-04-15T10:01:38.955Z,1.02
2023-04-15T10:02:39.046Z,1.05
2023-04-15T10:03:39.043Z,1.01
2023-04-15T10:04:38.981Z,1.01
2023-04-15T10:05:38.987Z,1.02
2023-04-15T10:06:39.029Z,1.03
2023-04-15T10:07:39.087Z,1.02
2023-04-15T10:08:39.078Z,0.99
2023-04-15T10:09:39.100Z,0.99
2023-04-15T10:10:39.127Z,1.01
2023-04-15T10:11:39.136Z,1.01
2023-04-15T10:12:39.161Z,0.99
2023-04-15T10:13:39.232Z,1.01
2023-04-15T10:14:39.185Z,0.98
2023-04-15T10:15:39.280Z,0.99
2023-04-15T10:16:39.247Z,0.99
2023-04-15T10:17:39.264Z,0.97
2023-04-15T10:18:39.270Z,1.00
2023-04-15T10:19:39.268Z,1.00
2023-04-15T10:20:39.317Z,0.99
2023-04-15T10:21:39.340Z,0.99
2023-04-15T10:22:39.386Z,0.99
2023-04-15T10:23:39.405Z,0.99
2023-04-15T10:24:39.457Z,0.99
2023-04-15T10:25:39.450Z,1.00
2023-04-15T10:26:39.475Z,1.00
2023-04-15T10:27:39.494Z,1.00
2023-04-15T10:28:39.482Z,0.99
2023-04-15T10:29:39.542Z,1.00
2023-04-15T10:30:39.547Z,0.94
2023-04-15T10:31:39.666Z,0.97
2023-04-15T10:32:39.611Z,0.95
2023-04-15T10:33:39.627Z,0.93
2023-04-15T10:34:39.623Z,0.93
2023-04-15T10:35:39.670Z,0.94
2023-04-15T10:36:39.710Z,0.93
2023-04-15T10:37:39.695Z,0.93
2023-04-15T10:38:39.697Z,0.91
2023-04-15T10:39:39.756Z,0.93
2023-04-15T10:40:39.747Z,0.91
2023-04-15T10:41:39.761Z,0.93
2023-04-15T10:42:39.808Z,0.92
2023-04-15T10:43:39.844Z,0.92
2023-04-15T10:44:39.829Z,0.93
2023-04-15T10:45:39.842Z,0.91
2023-04-15T10:46:40.013Z,0.88
2023-04-15T10:47:39.956Z,0.92
2023-04-15T10:48:39.945Z,0.89
2023-04-15T10:49:39.924Z,0.88
2023-04-15T10:50:39.960Z,0.87
2023-04-15T10:51:40.000Z,0.87
2023-04-15T10:52:39.995Z,0.89
2023-04-15T10:53:40.016Z,0.90
2023-04-15T10:54:40.144Z,0.87
2023-04-15T10:55:40.084Z,0.92
2023-04-15T10:56:40.086Z,0.92
2023-04-15T10:57:40.083Z,0.90
2023-04-15T10:58:40.141Z,0.89
2023-04-15T10:59:40.162Z,0.87
2023-04-15T11:00:40.182Z,0.93
2023-04-15T11:01:40.234Z,0.92
2023-04-15T11:02:40.439Z,0.93
2023-04-15T11:03:40.535Z,0.92
2023-04-15T11:04:41.858Z,0.94
2023-04-15T11:05:40.268Z,0.94
2023-04-15T11:06:40.261Z,0.92
2023-04-15T11:07:40.226Z,0.92
2023-04-15T11:08:40.234Z,0.92
2023-04-15T11:09:40.213Z,0.90
2023-04-15T11:10:40.185Z,0.91
2023-04-15T11:11:40.177Z,0.88
2023-04-15T11:12:40.225Z,0.90
2023-04-15T11:13:40.189Z,0.92
2023-04-15T11:14:40.218Z,0.91
2023-04-15T11:15:40.184Z,0.91
2023-04-15T11:16:40.221Z,0.88
2023-04-15T11:17:40.218Z,0.88
2023-04-15T11:18:40.184Z,0.90
2023-04-15T11:19:40.149Z,0.89
2023-04-15T11:20:40.156Z,0.88
2023-04-15T11:21:40.154Z,0.88
2023-04-15T11:22:40.147Z,0.86
2023-04-15T11:23:40.151Z,0.86
2023-04-15T11:24:40.103Z,0.85
2023-04-15T11:25:40.096Z,0.84
2023-04-15T11:26:40.095Z,0.84
2023-04-15T11:27:40.097Z,0.83
2023-04-15T11:28:40.107Z,0.82
2023-04-15T11:29:40.063Z,0.84
2023-04-15T11:30:40.088Z,0.84
2023-04-15T11:31:40.079Z,0.83
2023-04-15T11:32:40.114Z,0.83
2023-04-15T11:33:40.031Z,0.83
2023-04-15T11:34:40.035Z,0.81
2023-04-15T11:35:40.079Z,0.83
2023-04-15T11:36:40.010Z,0.81
2023-04-15T11:37:40.028Z,0.79
2023-04-15T11:38:39.990Z,0.82
2023-04-15T11:39:40.000Z,0.82
2023-04-15T11:40:40.015Z,0.81
2023-04-15T11:41:39.984Z,0.83
2023-04-15T11:42:49.611Z,0.83
2023-04-15T11:43:40.956Z,0.82
2023-04-15T11:44:39.975Z,0.82
2023-04-15T11:45:40.010Z,0.83
2023-04-15T11:46:39.952Z,0.82
2023-04-15T11:47:39.978Z,0.82
2023-04-15T11:48:39.944Z,0.82
2023-04-15T11:49:39.962Z,0.81
2023-04-15T11:50:39.916Z,0.84
2023-04-15T11:51:39.960Z,0.83
2023-04-15T11:52:39.949Z,0.83
2023-04-15T11:53:39.939Z,0.82
2023-04-15T11:54:39.891Z,0.83
2023-04-15T11:55:39.916Z,0.79
2023-04-15T11:56:39.887Z,0.76
2023-04-15T11:57:39.897Z,0.77
2023-04-15T11:58:39.865Z,0.77
2023-04-15T11:59:45.328Z,0.77
2023-04-15T12:00:40.856Z,0.77
2023-04-15T12:01:39.933Z,0.78
2023-04-15T12:02:39.926Z,0.78
2023-04-15T12:03:39.938Z,0.78
2023-04-15T12:04:39.985Z,0.79
2023-04-15T12:05:39.834Z,0.80
2023-04-15T12:06:39.839Z,0.76
2023-04-15T12:07:39.828Z,0.76
2023-04-15T12:08:39.826Z,0.75
2023-04-15T12:09:39.813Z,0.78
2023-04-15T12:10:39.793Z,0.77
2023-04-15T12:11:39.869Z,0.77
2023-04-15T12:12:39.784Z,0.75
2023-04-15T12:13:39.745Z,0.74
2023-04-15T12:14:39.766Z,0.74
2023-04-15T12:15:39.736Z,0.75
2023-04-15T12:16:47.967Z,0.72
2023-04-15T12:17:50.915Z,0.72
2023-04-15T12:18:40.715Z,0.72
2023-04-15T12:19:39.749Z,0.72
2023-04-15T12:20:39.689Z,0.72
2023-04-15T12:21:39.708Z,0.73
2023-04-15T12:22:39.673Z,0.73
2023-04-15T12:23:39.707Z,0.74
2023-04-15T12:24:39.714Z,0.72
2023-04-15T12:25:39.715Z,0.72
2023-04-15T12:26:39.638Z,0.73
2023-04-15T12:27:39.667Z,0.72
2023-04-15T12:28:39.611Z,0.74
2023-04-15T12:29:39.632Z,0.73
2023-04-15T12:30:39.635Z,0.73
2023-04-15T12:31:39.677Z,0.73
2023-04-15T12:32:42.120Z,0.72
2023-04-15T12:33:39.626Z,0.73
2023-04-15T12:34:39.594Z,0.73
2023-04-15T12:35:39.599Z,0.73
2023-04-15T12:36:39.625Z,0.73
2023-04-15T12:37:39.628Z,0.75
2023-04-15T12:38:39.561Z,0.74
2023-04-15T12:39:39.615Z,0.73
2023-04-15T12:40:39.590Z,0.70
2023-04-15T12:41:39.589Z,0.71
2023-04-15T12:42:39.584Z,0.69
2023-04-15T12:43:39.509Z,0.70
2023-04-15T12:44:39.539Z,0.69
2023-04-15T12:45:39.537Z,0.69
2023-04-15T12:46:39.675Z,0.66
2023-04-15T12:47:39.566Z,0.68
2023-04-15T12:48:39.496Z,0.66
2023-04-15T12:49:39.693Z,0.65
2023-04-15T12:50:39.509Z,0.66
2023-04-15T12:51:39.477Z,0.63
2023-04-15T12:52:39.483Z,0.64
2023-04-15T12:53:39.452Z,0.66
2023-04-15T12:54:39.490Z,0.65
2023-04-15T12:55:39.430Z,0.63
2023-04-15T12:56:39.453Z,0.62
2023-04-15T12:57:39.459Z,0.61
2023-04-15T12:58:39.406Z,0.60
2023-04-15T12:59:39.445Z,0.60
2023-04-15T13:00:39.414Z,0.61
2023-04-15T13:01:39.456Z,0.62
2023-04-15T13:02:39.549Z,0.63
2023-04-15T13:03:39.508Z,0.61
2023-04-15T13:04:39.425Z,0.60
2023-04-15T13:05:39.348Z,0.59
2023-04-15T13:06:39.342Z,0.58
2023-04-15T13:07:39.356Z,0.57
2023-04-15T13:08:42.743Z,0.57
2023-04-15T13:09:40.335Z,0.57
2023-04-15T13:10:39.370Z,0.57
2023-04-15T13:11:39.328Z,0.56
2023-04-15T13:12:39.358Z,0.55
2023-04-15T13:13:39.338Z,0.55
2023-04-15T13:14:39.347Z,0.57
2023-04-15T13:15:39.327Z,0.57
2023-04-15T13:16:39.467Z,0.55